createdAt,value
2023-04-20T00:00:25.705Z,4.50
2023-04-20T00:02:54.449Z,4.70
2023-04-20T00:05:24.375Z,4.60
2023-04-20T00:07:52.790Z,4.60
2023-04-20T00:10:21.232Z,4.30
2023-04-20T00:12:49.543Z,4.50
2023-04-20T00:15:17.960Z,4.70
2023-04-20T00:17:46.590Z,4.50
2023-04-20T00:20:15.438Z,4.50
2023-04-20T00:22:45.222Z,4.73
2023-04-20T00:25:13.394Z,4.77
2023-04-20T00:27:42.215Z,4.70
2023-04-20T00:30:12.202Z,5.17
2023-04-20T00:32:40.511Z,4.83
2023-04-20T00:35:09.819Z,5.10
2023-04-20T00:37:38.075Z,5.30
2023-04-20T00:40:09.730Z,5.30
2023-04-20T00:42:40.627Z,4.90
2023-04-20T00:45:10.138Z,4.87
2023-04-20T00:47:38.813Z,4.87
2023-04-20T00:50:09.024Z,5.27
2023-04-20T00:52:39.565Z,5.00
2023-04-20T00:55:10.865Z,5.30
2023-04-20T00:57:39.758Z,4.97
2023-04-20T01:00:14.416Z,5.30
2023-04-20T01:02:43.008Z,4.93
2023-04-20T01:05:11.602Z,5.30
2023-04-20T01:07:39.812Z,5.17
2023-04-20T01:10:10.820Z,5.60
2023-04-20T01:12:41.021Z,5.33
2023-04-20T01:15:09.954Z,5.60
2023-04-20T01:17:39.747Z,5.70
2023-04-20T01:20:11.757Z,5.93
2023-04-20T01:22:46.651Z,6.10
2023-04-20T01:25:15.059Z,6.20
2023-04-20T01:27:43.509Z,6.50
2023-04-20T01:30:12.537Z,5.83
2023-04-20T01:32:41.692Z,6.37
2023-04-20T01:35:10.841Z,5.93
2023-04-20T01:37:39.727Z,5.83
2023-04-20T01:40:11.141Z,5.70
2023-04-20T01:42:39.933Z,6.23
2023-04-20T01:45:09.318Z,6.00
2023-04-20T01:47:38.570Z,6.03
2023-04-20T01:50:09.260Z,6.40
2023-04-20T01:52:37.462Z,6.53
2023-04-20T01:55:08.647Z,6.47
2023-04-20T01:57:38.249Z,6.30
2023-04-20T02:00:08.631Z,6.10
2023-04-20T02:02:42.821Z,6.70
2023-04-20T02:05:11.848Z,6.33
2023-04-20T02:07:40.225Z,5.60
2023-04-20T02:10:09.249Z,5.90
2023-04-20T02:12:41.169Z,5.97
2023-04-20T02:15:10.364Z,6.27
2023-04-20T02:17:38.773Z,6.53
2023-04-20T02:20:09.255Z,6.13
2023-04-20T02:22:37.984Z,6.40
2023-04-20T02:25:07.781Z,6.47
2023-04-20T02:27:36.025Z,6.10
2023-04-20T02:30:08.788Z,6.33
2023-04-20T02:32:37.066Z,6.50
2023-04-20T02:35:05.918Z,6.77
2023-04-20T02:37:34.870Z,6.33
2023-04-20T02:40:03.111Z,6.97
2023-04-20T02:42:31.467Z,7.50
2023-04-20T02:45:01.255Z,7.27
2023-04-20T02:47:31.105Z,7.13
2023-04-20T02:49:59.546Z,6.97
2023-04-20T02:52:27.847Z,6.70
2023-04-20T02:54:58.707Z,6.70
2023-04-20T02:57:27.064Z,7.10
2023-04-20T02:59:57.017Z,7.17
2023-04-20T03:02:30.855Z,7.07
2023-04-20T03:04:59.646Z,6.60
2023-04-20T03:07:31.021Z,6.60
2023-04-20T03:09:59.385Z,6.77
2023-04-20T03:12:45.116Z,7.00
2023-04-20T03:15:32.290Z,7.33
2023-04-20T03:18:28.063Z,7.20
2023-04-20T03:20:57.027Z,7.33
2023-04-20T03:23:25.325Z,7.33
2023-04-20T03:25:54.084Z,7.10
2023-04-20T03:28:45.299Z,7.33
2023-04-20T03:31:17.452Z,6.90
2023-04-20T03:33:47.198Z,6.70
2023-04-20T03:36:15.409Z,7.37
2023-04-20T03:38:44.664Z,7.50
2023-04-20T03:41:13.337Z,7.13
2023-04-20T03:43:42.345Z,7.17
2023-04-20T03:46:11.085Z,7.60
2023-04-20T03:48:39.584Z,7.07
2023-04-20T03:51:09.185Z,7.73
2023-04-20T03:53:39.683Z,7.40
2023-04-20T03:56:09.504Z,7.73
2023-04-20T03:58:38.026Z,8.10
2023-04-20T04:01:21.207Z,8.70
2023-04-20T04:03:51.092Z,8.37
2023-04-20T04:06:21.161Z,9.57
2023-04-20T04:08:49.437Z,9.63
2023-04-20T04:11:17.993Z,9.50
2023-04-20T04:13:46.944Z,9.63
2023-04-20T04:16:15.238Z,10.23
2023-04-20T04:18:45.065Z,9.60
2023-04-20T04:21:13.519Z,9.40
2023-04-20T04:23:47.559Z,10.10
2023-04-20T04:26:28.128Z,9.30
2023-04-20T04:28:56.642Z,10.17
2023-04-20T04:31:25.317Z,10.07
2023-04-20T04:33:53.939Z,10.60
2023-04-20T04:36:30.225Z,9.43
2023-04-20T04:39:01.262Z,8.87
2023-04-20T04:41:29.735Z,9.33
2023-04-20T04:44:08.962Z,9.50
2023-04-20T04:46:37.812Z,9.10
2023-04-20T04:49:06.253Z,9.47
2023-04-20T04:51:34.687Z,9.70
2023-04-20T04:54:04.452Z,9.70
2023-04-20T04:56:32.594Z,9.63
2023-04-20T04:59:00.825Z,10.47
2023-04-20T05:01:29.069Z,10.13
2023-04-20T05:03:57.555Z,10.27
2023-04-20T05:06:25.867Z,9.97
2023-04-20T05:08:54.665Z,11.00
2023-04-20T05:11:24.217Z,9.97
2023-04-20T05:13:52.653Z,10.50
2023-04-20T05:16:20.909Z,11.67
2023-04-20T05:18:49.117Z,13.07
2023-04-20T05:21:17.637Z,11.80
2023-04-20T05:23:46.069Z,10.67
2023-04-20T05:26:14.275Z,10.80
2023-04-20T05:28:43.879Z,10.10
2023-04-20T05:31:12.122Z,10.43
2023-04-20T05:33:40.781Z,11.07
2023-04-20T05:36:10.646Z,10.90
2023-04-20T05:38:38.864Z,11.03
2023-04-20T05:41:07.511Z,11.50
2023-04-20T05:43:35.967Z,10.60
2023-04-20T05:46:06.200Z,9.97
2023-04-20T05:48:34.448Z,9.97
2023-04-20T05:51:02.778Z,10.70
2023-04-20T05:53:31.094Z,8.80
2023-04-20T05:55:59.252Z,8.57
2023-04-20T05:58:28.410Z,8.70
2023-04-20T06:00:56.863Z,8.67
2023-04-20T06:03:26.799Z,8.90
2023-04-20T06:05:55.233Z,8.03
2023-04-20T06:08:23.425Z,8.27
2023-04-20T06:10:55.466Z,8.00
2023-04-20T06:13:23.726Z,7.90
2023-04-20T06:15:52.779Z,8.13
2023-04-20T06:18:21.480Z,7.70
2023-04-20T06:20:51.336Z,8.50
2023-04-20T06:23:19.493Z,8.13
2023-04-20T06:25:47.805Z,8.23
2023-04-20T06:28:16.163Z,9.53
2023-04-20T06:30:44.434Z,8.73
2023-04-20T06:33:17.024Z,9.00
2023-04-20T06:35:45.430Z,8.93
2023-04-20T06:38:15.050Z,9.03
2023-04-20T06:40:43.322Z,9.53
2023-04-20T06:43:12.016Z,8.90
2023-04-20T06:45:40.419Z,9.10
2023-04-20T06:48:20.217Z,8.20
2023-04-20T06:50:56.157Z,8.43
2023-04-20T06:53:26.266Z,8.37
2023-04-20T06:55:55.503Z,7.80
2023-04-20T06:58:23.826Z,7.27
2023-04-20T07:00:52.519Z,7.37
2023-04-20T07:03:21.108Z,6.93
2023-04-20T07:05:49.715Z,6.87
2023-04-20T07:08:17.855Z,7.63
2023-04-20T07:10:47.648Z,7.13
2023-04-20T07:13:16.224Z,7.20
2023-04-20T07:15:46.136Z,7.43
2023-04-20T07:18:14.410Z,7.53
2023-04-20T07:20:42.930Z,7.20
2023-04-20T07:23:11.249Z,7.60
2023-04-20T07:25:39.411Z,7.83
2023-04-20T07:28:09.067Z,7.80
2023-04-20T07:30:37.306Z,8.30
2023-04-20T07:33:05.782Z,7.30
2023-04-20T07:35:33.970Z,7.17
2023-04-20T07:38:02.102Z,7.00
2023-04-20T07:40:30.604Z,6.87
2023-04-20T07:42:58.871Z,6.97
2023-04-20T07:45:28.606Z,7.77
2023-04-20T07:47:57.445Z,7.57
2023-04-20T07:50:26.076Z,7.70
2023-04-20T07:52:54.321Z,8.27
2023-04-20T07:55:22.802Z,7.50
2023-04-20T07:57:51.406Z,7.67
2023-04-20T08:00:20.742Z,7.90
2023-04-20T08:02:50.597Z,7.80
2023-04-20T08:05:19.917Z,7.37
2023-04-20T08:07:48.561Z,7.17
2023-04-20T08:10:16.871Z,7.00
2023-04-20T08:12:45.336Z,7.20
2023-04-20T08:15:14.476Z,7.10
2023-04-20T08:17:43.229Z,7.60
2023-04-20T08:20:13.146Z,7.70
2023-04-20T08:22:41.411Z,7.23
2023-04-20T08:25:10.066Z,7.13
2023-04-20T08:27:38.646Z,7.03
2023-04-20T08:30:08.736Z,7.10
2023-04-20T08:32:37.261Z,7.53
2023-04-20T08:35:05.898Z,7.63
2023-04-20T08:37:37.611Z,7.13
2023-04-20T08:40:06.846Z,6.80
2023-04-20T08:42:35.085Z,7.00
2023-04-20T08:45:03.683Z,7.60
2023-04-20T08:47:35.151Z,7.33
2023-04-20T08:50:05.723Z,7.30
2023-04-20T08:52:38.653Z,7.23
2023-04-20T08:55:08.527Z,7.43
2023-04-20T08:57:36.754Z,7.33
2023-04-20T09:00:07.913Z,7.50
2023-04-20T09:02:36.449Z,7.63
2023-04-20T09:05:05.940Z,7.63
2023-04-20T09:07:36.259Z,6.80
2023-04-20T09:10:04.690Z,7.20
2023-04-20T09:12:42.391Z,6.93
2023-04-20T09:15:11.803Z,7.63
2023-04-20T09:17:41.561Z,6.80
2023-04-20T09:20:11.611Z,7.40
2023-04-20T09:22:43.305Z,7.90
2023-04-20T09:25:15.962Z,7.70
2023-04-20T09:27:44.294Z,7.40
2023-04-20T09:30:13.143Z,7.27
2023-04-20T09:32:41.861Z,6.70
2023-04-20T09:35:10.942Z,6.10
2023-04-20T09:37:49.848Z,6.80
2023-04-20T09:40:21.933Z,7.17
2023-04-20T09:42:51.241Z,7.20
2023-04-20T09:45:20.241Z,6.83
2023-04-20T09:47:49.937Z,7.10
2023-04-20T09:50:26.616Z,6.80
2023-04-20T09:52:59.737Z,6.80
2023-04-20T09:55:28.426Z,6.87
2023-04-20T09:57:59.122Z,6.87
2023-04-20T10:00:27.595Z,7.13
2023-04-20T10:02:56.196Z,6.57
2023-04-20T10:05:35.134Z,9.57
2023-04-20T10:08:05.052Z,8.30
2023-04-20T10:10:44.807Z,8.17
2023-04-20T10:13:13.074Z,7.33
2023-04-20T10:15:42.883Z,6.90
2023-04-20T10:18:19.142Z,7.43
2023-04-20T10:20:47.921Z,7.60
2023-04-20T10:23:19.820Z,14.80
2023-04-20T10:25:58.667Z,6.73
2023-04-20T10:28:27.266Z,15.63
2023-04-20T10:30:56.288Z,7.63
2023-04-20T10:33:24.966Z,6.33
2023-04-20T10:35:55.369Z,6.37
2023-04-20T10:38:32.281Z,12.10
2023-04-20T10:41:08.180Z,10.10
2023-04-20T10:43:39.253Z,7.90
2023-04-20T10:46:18.726Z,12.03
2023-04-20T10:48:54.529Z,6.67
2023-04-20T10:51:23.334Z,6.20
2023-04-20T10:54:05.137Z,6.93
2023-04-20T10:56:41.600Z,7.13
2023-04-20T10:59:11.403Z,7.07
2023-04-20T11:01:40.979Z,6.80
2023-04-20T11:04:10.564Z,7.60
2023-04-20T11:06:39.519Z,6.97
2023-04-20T11:09:20.315Z,7.00
2023-04-20T11:12:02.303Z,7.43
2023-04-20T11:14:31.042Z,6.83
2023-04-20T11:17:01.886Z,6.50
2023-04-20T11:19:32.066Z,6.80
2023-04-20T11:22:01.002Z,7.60
2023-04-20T11:24:32.828Z,6.40
2023-04-20T11:27:03.173Z,9.03
2023-04-20T11:29:33.536Z,6.60
2023-04-20T11:32:05.195Z,5.30
2023-04-20T11:34:34.178Z,5.43
2023-04-20T11:37:05.669Z,5.50
2023-04-20T11:39:37.460Z,5.60
2023-04-20T11:42:06.991Z,5.50
2023-04-20T11:44:36.784Z,6.37
2023-04-20T11:47:06.062Z,5.57
2023-04-20T11:49:34.492Z,3.77
2023-04-20T11:52:03.406Z,3.50
2023-04-20T11:54:34.226Z,3.10
2023-04-20T11:57:04.644Z,3.42
2023-04-20T11:59:33.245Z,3.00
2023-04-20T12:02:04.273Z,3.20
2023-04-20T12:04:34.458Z,3.75
2023-04-20T12:07:05.816Z,4.13
2023-04-20T12:09:37.429Z,4.10
2023-04-20T12:12:08.753Z,3.70
2023-04-20T12:14:37.300Z,3.30
2023-04-20T12:17:06.087Z,3.30
2023-04-20T12:19:34.395Z,3.20
2023-04-20T12:22:02.763Z,2.95
2023-04-20T12:24:31.189Z,3.28
2023-04-20T12:26:59.611Z,2.92
2023-04-20T12:29:31.248Z,3.22
2023-04-20T12:32:00.119Z,3.10
2023-04-20T12:34:30.707Z,3.22
2023-04-20T12:36:59.365Z,3.63
2023-04-20T12:39:27.785Z,2.80
2023-04-20T12:41:57.058Z,2.90
2023-04-20T12:44:25.461Z,2.55
2023-04-20T12:46:56.648Z,4.97
2023-04-20T12:49:25.010Z,3.10
2023-04-20T12:51:53.666Z,3.97
2023-04-20T12:54:22.709Z,3.83
2023-04-20T12:56:51.812Z,2.80
2023-04-20T12:59:20.815Z,3.50
2023-04-20T13:01:49.409Z,3.80
2023-04-20T13:04:19.567Z,4.05
2023-04-20T13:06:48.100Z,3.33
2023-04-20T13:09:16.490Z,2.90
2023-04-20T13:11:44.729Z,3.38
2023-04-20T13:14:12.979Z,3.25
2023-04-20T13:16:41.455Z,3.90
2023-04-20T13:19:09.879Z,4.68
2023-04-20T13:21:39.460Z,7.75
2023-04-20T13:24:08.216Z,9.57
2023-04-20T13:26:36.719Z,11.75
2023-04-20T13:29:05.080Z,3.80
2023-04-20T13:31:35.095Z,3.85
2023-04-20T13:34:03.385Z,2.60
2023-04-20T13:36:32.830Z,3.22
2023-04-20T13:39:03.681Z,3.30
2023-04-20T13:41:32.125Z,3.30
2023-04-20T13:44:01.965Z,3.10
2023-04-20T13:46:31.217Z,3.42
2023-04-20T13:48:59.677Z,3.20
2023-04-20T13:51:28.149Z,2.85
2023-04-20T13:53:56.453Z,2.80
2023-04-20T13:56:26.138Z,3.20
2023-04-20T13:58:54.532Z,2.20
2023-04-20T14:01:23.099Z,2.20
2023-04-20T14:03:52.344Z,1.80
2023-04-20T14:06:21.058Z,1.60
2023-04-20T14:08:49.508Z,1.60
2023-04-20T14:11:18.210Z,1.40
2023-04-20T14:13:48.196Z,1.52
2023-04-20T14:16:16.887Z,1.50
2023-04-20T14:18:46.097Z,1.40
2023-04-20T14:21:14.785Z,1.40
2023-04-20T14:23:43.033Z,1.50
2023-04-20T14:26:11.356Z,1.50
2023-04-20T14:28:39.807Z,1.40
2023-04-20T14:31:09.440Z,1.90
2023-04-20T14:33:38.382Z,2.00
2023-04-20T14:36:07.388Z,2.10
2023-04-20T14:38:35.840Z,2.10
2023-04-20T14:41:04.510Z,1.70
2023-04-20T14:43:34.527Z,1.98
2023-04-20T14:46:02.806Z,1.60
2023-04-20T14:48:32.568Z,1.50
2023-04-20T14:51:01.410Z,1.60
2023-04-20T14:53:31.409Z,1.15
2023-04-20T14:56:00.378Z,1.20
2023-04-20T14:58:28.705Z,1.40
2023-04-20T15:00:57.412Z,1.60
2023-04-20T15:03:25.888Z,1.60
2023-04-20T15:06:01.952Z,1.70
2023-04-20T15:08:30.400Z,1.90
2023-04-20T15:10:58.708Z,1.77
2023-04-20T15:13:27.352Z,1.60
2023-04-20T15:15:55.822Z,1.90
2023-04-20T15:18:24.094Z,1.60
2023-04-20T15:20:52.707Z,6.95
2023-04-20T15:23:22.458Z,3.63
2023-04-20T15:25:50.857Z,4.90
2023-04-20T15:28:19.667Z,3.00
2023-04-20T15:30:48.455Z,5.87
2023-04-20T15:33:17.420Z,2.87
2023-04-20T15:35:45.929Z,2.20
2023-04-20T15:38:14.308Z,2.33
2023-04-20T15:40:43.858Z,1.80
2023-04-20T15:43:13.167Z,2.10
2023-04-20T15:45:43.511Z,1.70
2023-04-20T15:48:13.216Z,7.73
2023-04-20T15:50:41.646Z,2.70
2023-04-20T15:53:10.013Z,2.90
2023-04-20T15:55:39.769Z,2.17
2023-04-20T15:58:10.619Z,6.13
2023-04-20T16:00:40.384Z,1.97
2023-04-20T16:03:08.976Z,1.70
2023-04-20T16:05:37.487Z,2.03
2023-04-20T16:08:06.985Z,1.83
2023-04-20T16:10:35.488Z,2.73
2023-04-20T16:13:04.684Z,1.67
2023-04-20T16:15:37.542Z,2.57
2023-04-20T16:18:06.357Z,1.90
2023-04-20T16:20:35.120Z,1.87
2023-04-20T16:23:03.472Z,12.90
2023-04-20T16:25:34.189Z,2.50
2023-04-20T16:28:02.496Z,2.20
2023-04-20T16:30:31.156Z,5.57
2023-04-20T16:33:00.955Z,1.90
2023-04-20T16:35:29.458Z,10.50
2023-04-20T16:37:57.838Z,4.63
2023-04-20T16:40:28.943Z,2.63
2023-04-20T16:42:57.645Z,2.40
2023-04-20T16:45:27.838Z,1.80
2023-04-20T16:47:56.351Z,2.67
2023-04-20T16:50:26.251Z,1.57
2023-04-20T16:52:54.847Z,1.63
2023-04-20T16:55:23.951Z,2.00
2023-04-20T16:57:52.210Z,2.00
2023-04-20T17:00:21.920Z,2.00
2023-04-20T17:02:51.994Z,1.90
2023-04-20T17:05:20.506Z,2.00
2023-04-20T17:07:50.438Z,2.30
2023-04-20T17:10:18.806Z,2.20
2023-04-20T17:12:47.229Z,2.40
2023-04-20T17:15:16.032Z,2.10
2023-04-20T17:17:46.012Z,2.20
2023-04-20T17:20:14.570Z,2.00
2023-04-20T17:22:43.112Z,2.33
2023-04-20T17:25:12.798Z,2.27
2023-04-20T17:27:41.124Z,2.30
2023-04-20T17:30:11.002Z,3.00
2023-04-20T17:32:39.409Z,3.40
2023-04-20T17:35:08.365Z,5.40
2023-04-20T17:37:36.784Z,3.40
2023-04-20T17:40:06.453Z,2.70
2023-04-20T17:42:36.163Z,2.60
2023-04-20T17:45:04.566Z,2.27
2023-04-20T17:47:33.235Z,2.40
2023-04-20T17:50:01.558Z,2.40
2023-04-20T17:52:29.839Z,2.43
2023-04-20T17:55:00.336Z,2.87
2023-04-20T17:57:29.261Z,4.80
2023-04-20T17:59:58.930Z,2.70
2023-04-20T18:02:28.076Z,3.27
2023-04-20T18:04:59.758Z,2.70
2023-04-20T18:07:28.431Z,2.70
2023-04-20T18:09:56.828Z,3.33
2023-04-20T18:12:27.323Z,2.97
2023-04-20T18:14:55.607Z,3.40
2023-04-20T18:17:25.308Z,3.87
2023-04-20T18:19:53.676Z,4.10
2023-04-20T18:22:22.044Z,3.30
2023-04-20T18:24:50.443Z,2.93
2023-04-20T18:27:18.702Z,2.67
2023-04-20T18:29:47.192Z,3.27
2023-04-20T18:32:17.927Z,4.23
2023-04-20T18:34:48.296Z,7.33
2023-04-20T18:37:17.223Z,8.63
2023-04-20T18:39:45.592Z,13.00
2023-04-20T18:42:14.280Z,11.27
2023-04-20T18:44:42.599Z,10.03
2023-04-20T18:47:11.913Z,10.93
2023-04-20T18:49:40.471Z,10.00
2023-04-20T18:52:10.199Z,12.00
2023-04-20T18:54:38.608Z,13.13
2023-04-20T18:57:07.333Z,10.37
2023-04-20T18:59:35.698Z,7.70
2023-04-20T19:02:03.960Z,7.53
2023-04-20T19:04:36.323Z,7.87
2023-04-20T19:07:04.682Z,7.17
2023-04-20T19:09:34.289Z,5.53
2023-04-20T19:12:02.528Z,5.00
2023-04-20T19:14:30.948Z,4.73
2023-04-20T19:16:59.360Z,4.70
2023-04-20T19:19:27.693Z,4.40
2023-04-20T19:21:57.445Z,3.90
2023-04-20T19:24:25.822Z,4.13
2023-04-20T19:26:55.569Z,3.97
2023-04-20T19:29:24.116Z,4.90
2023-04-20T19:31:53.011Z,4.57
2023-04-20T19:34:22.000Z,4.80
2023-04-20T19:36:50.319Z,4.40
2023-04-20T19:39:18.612Z,4.30
2023-04-20T19:41:46.958Z,3.80
2023-04-20T19:44:16.895Z,4.20
2023-04-20T19:46:45.537Z,4.30
2023-04-20T19:49:13.888Z,3.90
2023-04-20T19:51:42.278Z,4.10
2023-04-20T19:54:11.936Z,6.67
2023-04-20T19:56:40.538Z,7.30
2023-04-20T19:59:08.954Z,7.53
2023-04-20T20:01:39.117Z,7.73
2023-04-20T20:04:08.200Z,7.37
2023-04-20T20:06:37.360Z,6.13
2023-04-20T20:09:06.627Z,5.83
2023-04-20T20:11:35.252Z,5.93
2023-04-20T20:14:03.815Z,9.23
2023-04-20T20:16:32.354Z,9.53
2023-04-20T20:19:02.192Z,8.93
2023-04-20T20:21:30.494Z,8.90
2023-04-20T20:23:58.878Z,15.87
2023-04-20T20:26:27.373Z,17.20
2023-04-20T20:28:55.784Z,21.50
2023-04-20T20:31:24.141Z,21.63
2023-04-20T20:33:52.741Z,28.30
2023-04-20T20:36:22.694Z,27.33
2023-04-20T20:38:51.379Z,30.37
2023-04-20T20:41:21.484Z,35.00
2023-04-20T20:43:51.761Z,42.67
2023-04-20T20:46:20.255Z,33.60
2023-04-20T20:48:48.534Z,10.03
2023-04-20T20:51:17.200Z,5.53
2023-04-20T20:53:46.795Z,4.77
2023-04-20T20:56:15.033Z,4.20
2023-04-20T20:58:43.332Z,4.20
2023-04-20T21:01:12.119Z,4.20
2023-04-20T21:03:40.524Z,4.33
2023-04-20T21:06:09.214Z,4.80
2023-04-20T21:08:37.432Z,5.20
2023-04-20T21:11:08.694Z,4.47
2023-04-20T21:13:36.840Z,5.33
2023-04-20T21:16:05.233Z,4.50
2023-04-20T21:18:33.960Z,4.90
2023-04-20T21:21:02.439Z,5.00
2023-04-20T21:23:31.047Z,5.10
2023-04-20T21:25:59.348Z,4.50
2023-04-20T21:28:29.330Z,5.03
2023-04-20T21:30:57.588Z,4.80
2023-04-20T21:33:25.832Z,4.80
2023-04-20T21:35:54.490Z,5.00
2023-04-20T21:38:23.175Z,4.93
2023-04-20T21:40:51.597Z,5.67
2023-04-20T21:43:19.787Z,5.80
2023-04-20T21:45:50.804Z,5.70
2023-04-20T21:48:19.205Z,5.80
2023-04-20T21:50:47.486Z,6.30
2023-04-20T21:53:15.658Z,6.40
2023-04-20T21:55:43.806Z,7.23
2023-04-20T21:58:12.077Z,8.00
2023-04-20T22:00:40.274Z,8.60
2023-04-20T22:03:09.962Z,7.90
2023-04-20T22:05:38.199Z,7.60
2023-04-20T22:08:07.762Z,7.10
2023-04-20T22:10:36.187Z,7.63
2023-04-20T22:13:04.361Z,7.90
2023-04-20T22:15:32.556Z,9.10
2023-04-20T22:18:01.234Z,8.17
2023-04-20T22:20:31.708Z,8.53
2023-04-20T22:22:59.874Z,8.77
2023-04-20T22:25:28.006Z,8.33
2023-04-20T22:27:56.233Z,10.00
2023-04-20T22:30:24.555Z,18.50
2023-04-20T22:32:52.693Z,18.60
2023-04-20T22:35:21.035Z,13.33
2023-04-20T22:37:50.567Z,14.20
2023-04-20T22:40:18.778Z,11.13
2023-04-20T22:42:47.362Z,11.17
2023-04-20T22:45:20.160Z,11.47
2023-04-20T22:47:48.742Z,11.50
2023-04-20T22:50:17.458Z,11.07
2023-04-20T22:52:46.171Z,11.00
2023-04-20T22:55:15.892Z,11.47
2023-04-20T22:57:44.060Z,12.40
2023-04-20T23:00:13.936Z,12.17
2023-04-20T23:02:42.587Z,12.40
2023-04-20T23:05:11.260Z,12.00
2023-04-20T23:07:40.191Z,15.37
2023-04-20T23:10:11.031Z,14.00
2023-04-20T23:12:40.667Z,15.77
2023-04-20T23:15:10.004Z,15.13
2023-04-20T23:17:38.350Z,13.80
2023-04-20T23:20:10.707Z,14.17
2023-04-20T23:22:38.876Z,14.07
2023-04-20T23:25:08.042Z,15.20
2023-04-20T23:27:36.346Z,13.47
2023-04-20T23:30:07.599Z,12.53
2023-04-20T23:32:37.122Z,12.00
2023-04-20T23:35:06.531Z,12.27
2023-04-20T23:37:34.786Z,12.10
2023-04-20T23:40:06.723Z,11.77
2023-04-20T23:42:37.437Z,11.97
2023-04-20T23:45:09.333Z,12.17
2023-04-20T23:47:37.616Z,14.23
2023-04-20T23:50:07.027Z,14.80
2023-04-20T23:52:35.806Z,15.33
2023-04-20T23:55:04.226Z,13.40
2023-04-20T23:57:32.467Z,12.57
